Weather observations for the past three days for
Viroqua Municipal Airport
Metric (Imperial)
Date Time (cdt) Wind (kph) Vis. (km) Weather Sky Cond. Temperature (ºC) Relative Humidity Wind Chill (°C) Heat Index (°C) Pressure Precipitation (cm)
Air Dwpt 6 hour altimeter (cm) sea level (mb) 1 hr 3 hr 6 hr
Max. Min.
04 20:00 NW 33 G 43 16.09 Fair and Breezy CLR 13.7 -2.4 33% 75.08 0.0
04 19:35 W 22 G 37 16.09 Fair CLR 14.5 -2.7 31% 75.08 0.0
04 19:15 NW 28 16.09 Fair CLR 15 -3.1 29% 75.06 0.0
04 18:55 W 24 G 39 16.09 Fair CLR 15.5 -3.8 23.7 15.5 26% 75.03 0.0
04 18:35 W 24 G 35 16.09 Fair CLR 16.2 -3.2 26% 75.03 0.0
04 18:15 W 22 16.09 Fair CLR 16.5 -2.8 27% 75.01 0.0
04 17:55 W 26 16.09 Fair CLR 16.8 -2.4 27% 75.01 0.0
04 17:35 W 28 G 35 16.09 Partly Cloudy SCT110 17 -2.1 27% 74.98 0.0
04 17:15 W 22 G 37 16.09 Fair CLR 17.2 -1.9 27% 74.98 0.0
04 16:55 W 26 G 41 16.09 Fair CLR 18.3 -1.8 26% 74.96 0.0
04 16:35 W 20 G 43 16.09 Fair CLR 19.5 -0.8 26% 74.93 0.0
04 16:15 NW 35 G 44 16.09 Fair and Breezy CLR 20.1 -0.8 25% 74.9 0.0
04 15:55 W 28 G 41 16.09 Fair CLR 21 1.5 28% 74.88 0.0
04 15:35 NW 22 G 37 16.09 Fair CLR 21 2 29% 74.9 0.0
04 15:15 NW 31 G 44 16.09 Fair CLR 21.5 2.4 28% 74.88 0.0
04 15:00 NW 26 G 37 16.09 Fair CLR 21.8 3.3 30% 74.85 0.0
04 14:35 W 24 G 44 16.09 Fair CLR 22.5 3.1 28% 74.85 0.0
04 14:15 W 31 G 41 16.09 Partly Cloudy SCT095 23 3.9 29% 74.83 0.0
04 13:55 W 26 G 41 16.09 Partly Cloudy SCT095 22.8 4.4 30% 74.83 0.0
04 13:35 W 28 G 41 16.09 Fair CLR 23.2 4.4 30% 74.83 0.0
04 13:15 W 35 G 50 16.09 Fair and Breezy CLR 23.5 3.1 26% 74.8 0.0
04 12:55 W 31 G 52 16.09 Fair CLR 23.6 3 23.6 10.6 26% 74.8 0.0
04 12:35 W 43 G 57 16.09 Partly Cloudy and Windy SCT100 23.6 3 26% 74.8 0.0
04 12:15 W 41 G 52 16.09 Fair and Breezy CLR 23.6 2.7 26% 74.8 0.0
04 11:55 W 35 G 59 16.09 Partly Cloudy and Breezy SCT100 22.6 2.4 27% 74.83 0.0
04 11:35 SW 43 G 59 16.09 Partly Cloudy and Windy SCT095 22.4 2.5 27% 74.83 0.0
04 11:15 W 33 G 52 16.09 Partly Cloudy and Breezy SCT095 22.4 2.7 27% 74.88 0.0
04 10:55 W 33 G 44 16.09 Fair and Breezy CLR 21.9 2.4 28% 74.88 0.0
04 10:35 SW 33 G 50 16.09 Fair and Breezy CLR 21.5 2.2 28% 74.85 0.0
04 10:15 SW 31 G 46 16.09 Fair CLR 20.6 2.4 30% 74.88 0.0
04 09:55 SW 24 16.09 Fair CLR 19.7 2.7 33% 74.88 0.0
04 09:35 SW 26 G 39 16.09 Fair CLR 18.7 2.5 34% 74.88 0.0
04 09:15 SW 22 G 37 16.09 Fair CLR 17.5 2.2 36% 74.9 0.0
04 08:55 SW 28 G 37 16.09 Fair CLR 16.6 2.1 38% 74.93 0.0
04 08:35 SW 22 16.09 Fair CLR 15.7 1.9 40% 74.96 0.0
04 08:15 SW 24 G 33 16.09 Fair CLR 14.6 1.6 42% 74.96 0.0
04 07:55 SW 20 16.09 Fair CLR 13.6 2.1 46% 74.98 0.0
04 07:35 S 24 16.09 Fair CLR 12.3 2 50% 74.98 0.0
04 07:15 SW 20 16.09 Fair CLR 11.1 1.7 53% 74.98 0.0
04 06:55 S 19 16.09 Fair CLR 10.5 1.5 12.5 9.6 54% 74.98 0.0
04 06:35 S 17 16.09 Fair CLR 9.7 1.3 56% 8 75.01 0.0
04 06:15 S 17 16.09 Fair CLR 9.7 1.1 55% 8 75.01 0.0
04 05:55 S 19 16.09 Fair CLR 9.8 1 55% 8 75.01 0.0
04 05:35 S 19 16.09 Fair CLR 10 0.7 53% 8 75.03 0.0
04 05:15 S 17 16.09 Fair CLR 10.4 0.6 51% 75.06 0.0
04 04:55 S 17 16.09 Fair CLR 10.4 0.6 51% 75.08 0.0
04 04:35 S 17 16.09 Fair CLR 10.3 0.7 52% 75.11 0.0
04 04:15 SW 15 16.09 Fair CLR 10.3 0.7 52% 75.11 0.0
04 03:55 SW 15 16.09 Fair CLR 10.2 0.8 52% 75.13 0.0
04 03:35 SW 13 16.09 Fair CLR 10.5 1.2 53% 75.13 0.0
04 03:15 SW 15 16.09 Fair CLR 10.6 1.1 52% 75.16 0.0
04 02:55 SW 11 16.09 Fair CLR 10.7 0.5 50% 75.16 0.0
04 02:35 SW 7 16.09 Fair CLR 10.8 0.1 48% 75.21 0.0
04 02:15 S 6 16.09 Fair CLR 10.8 0.2 48% 75.21 0.0
04 01:55 S 7 16.09 Fair CLR 11.6 0 45% 75.23 0.0
04 01:35 S 6 16.09 Fair CLR 11.5 0 45% 75.26 0.0
04 01:15 S 7 16.09 Fair CLR 12.1 -0.2 43% 75.29 0.0
04 00:55 S 6 16.09 Fair CLR 12.5 -0.3 19.8 11.8 42% 75.31 0.0
04 00:35 SW 7 16.09 Fair CLR 12 0 44% 75.34 0.0
04 00:20 SW 9 16.09 Fair CLR 12.1 0.1 44% 75.34 0.0
03 23:55 SW 9 16.09 Fair CLR 13 0 41% 75.36 0.0
03 23:35 SW 11 16.09 Fair CLR 13.5 -0.1 40% 75.36 0.0
03 23:15 SW 11 16.09 Fair CLR 13.9 -0.3 38% 75.36 0.0
03 22:55 SW 11 16.09 Fair CLR 14.3 -0.1 38% 75.39 0.0
03 22:35 W 11 16.09 Fair CLR 15 0 36% 75.41 0.0
03 22:15 W 7 16.09 Fair CLR 15.3 0 35% 75.41 0.0
03 21:55 W 6 16.09 Fair CLR 15.6 0 35% 75.41 0.0
03 21:35 W 7 16.09 Fair CLR 15.7 0.2 35% 75.41 0.0
03 21:15 W 9 16.09 Fair CLR 15.6 0.6 36% 75.39 0.0
03 20:55 W 11 16.09 Fair CLR 15.7 1.2 38% 75.39 0.0
03 20:35 W 7 16.09 Fair CLR 16.4 0.7 35% 75.39 0.0
03 20:15 W 6 16.09 Fair CLR 16.9 0.1 32% 75.36 0.0
03 19:55 W 9 16.09 Fair CLR 17.3 0.5 32% 75.36 0.0
03 19:40 NW 13 16.09 Fair CLR 18.5 -0.3 28% 75.36 0.0
03 19:15 NW 19 16.09 Fair CLR 19.5 -0.4 26% 75.36 0.0
03 18:55 W 17 16.09 Fair CLR 20 0.4 21.6 18.1 27% 75.36 0.0
03 18:35 W 20 16.09 Fair CLR 20.3 0.2 26% 75.34 0.0
03 18:15 W 15 16.09 Fair CLR 20.6 0.4 26% 75.34 0.0
03 17:55 NW 20 G 30 16.09 Fair CLR 20.6 0.1 26% 75.34 0.0
03 17:35 NW 15 G 28 16.09 Fair CLR 20.7 0.3 26% 75.34 0.0
03 17:15 W 17 G 30 16.09 Fair CLR 21.3 1.4 27% 75.34 0.0
03 16:55 W 19 16.09 Partly Cloudy SCT080 21.4 1.2 26% 75.34 0.0
03 16:35 NW 22 G 28 16.09 Fair CLR 21.5 1.5 27% 75.34 0.0
03 16:15 W 24 G 31 16.09 Fair CLR 21.3 1.1 26% 75.34 0.0
03 15:55 W 15 G 26 16.09 Fair CLR 21.3 1.9 28% 75.34 0.0
03 15:35 NW 22 G 37 16.09 Fair CLR 21.3 1.9 28% 75.36 0.0
03 15:15 W 13 G 28 16.09 Fair CLR 20.5 2.4 30% 75.36 0.0
03 14:55 W 15 16.09 Fair CLR 20.2 3.1 32% 75.39 0.0
03 14:35 W 7 G 28 16.09 Fair CLR 19.8 2.6 32% 75.39 0.0
03 14:15 W 13 G 28 16.09 Fair CLR 19.6 2.7 33% 75.41 0.0
03 13:55 W 19 G 26 16.09 Fair CLR 18.9 2.6 34% 75.41 0.0
03 13:35 SW 19 G 26 16.09 Fair CLR 18.6 2.5 34% 75.44 0.0
03 13:15 SW 19 16.09 Fair CLR 18.5 2.9 36% 75.46 0.0
03 12:55 W 11 16.09 Fair CLR 17.7 2.2 17.7 10.6 36% 75.46 0.0
03 12:35 SW 19 G 31 16.09 Fair CLR 17.5 2.5 37% 75.46 0.0
03 12:15 SW 19 G 31 16.09 Fair CLR 17.2 2.5 38% 75.49 0.0
03 11:55 SW 22 G 33 16.09 Fair CLR 16.5 2 38% 75.51 0.0
03 11:35 SW 22 G 30 16.09 Fair CLR 16 1.7 38% 75.49 0.0
03 11:15 SW 26 G 31 16.09 Fair CLR 16 1.9 39% 75.51 0.0
03 10:55 SW 26 G 37 16.09 Fair CLR 15.5 1.6 39% 75.51 0.0
03 10:35 SW 28 G 37 16.09 Fair CLR 15.3 1.3 39% 75.54 0.0
03 10:15 SW 28 G 37 16.09 Fair CLR 14.8 0.6 38% 75.54 0.0
03 09:55 SW 35 G 43 16.09 Fair and Breezy CLR 14.9 1 39% 75.54 0.0
03 09:35 SW 28 G 44 16.09 Fair CLR 14.3 1.4 42% 75.54 0.0
03 09:15 SW 28 G 41 16.09 Fair CLR 13.8 2.6 47% 75.57 0.0
03 08:55 S 26 G 37 16.09 Partly Cloudy SCT090 13 3.1 51% 75.57 0.0
03 08:35 S 20 G 33 16.09 Fair CLR 12.5 3.1 53% 75.59 0.0
03 08:15 S 31 G 41 16.09 Fair CLR 11.9 2.6 53% 75.59 0.0
03 07:55 S 26 G 35 16.09 Partly Cloudy SCT100 SCT120 11.2 3.2 58% 75.59 0.0
03 07:35 S 30 G 35 16.09 Partly Cloudy SCT120 11.4 3.1 57% 75.59 0.0
03 07:15 S 28 G 37 16.09 Partly Cloudy SCT080 SCT120 11.2 2.5 55% 75.59 0.0
03 06:55 S 22 G 33 16.09 Mostly Cloudy BKN080 10.5 2.5 10.6 9.2 58% 75.62 0.0
03 06:35 S 20 G 33 16.09 Mostly Cloudy BKN065 BKN090 BKN120 10.4 2.1 57% 75.64 0.0
03 06:15 SW 19 16.09 Partly Cloudy SCT065 SCT075 SCT090 9.8 2.1 59% 8 75.69 0.0
03 05:55 SW 20 16.09 Partly Cloudy SCT090 9.5 1.9 59% 7 75.69 0.0
03 05:35 S 20 16.09 Overcast BKN065 OVC100 9.9 1.9 58% 7 75.69 0.0
03 05:15 S 19 16.09 Mostly Cloudy SCT050 BKN065 BKN075 9.5 1.8 59% 7 75.72 0.0
03 04:55 SW 17 16.09 Mostly Cloudy SCT055 BKN085 9.2 1.6 59% 7 75.74 0.0
03 04:35 SW 22 16.09 Overcast SCT048 BKN055 OVC070 9.5 1.3 57% 7 75.77 0.0
03 04:15 SW 19 16.09 Overcast SCT060 SCT070 OVC100 10.3 -0.6 47% 75.77 0.0
03 03:55 SW 19 16.09 Mostly Cloudy BKN090 10.2 -0.9 46% 75.77 0.0
03 03:35 SW 24 G 33 16.09 Overcast OVC090 10.3 -1.2 45% 75.77 0.0
03 03:15 SW 19 G 28 16.09 Overcast BKN090 OVC120 10.1 -1.4 45% 75.79 0.0
03 02:55 SW 20 16.09 Overcast BKN090 OVC110 10.3 -1.4 44% 75.79 0.0
03 02:35 SW 19 16.09 Overcast OVC090 10.3 -1.5 44% 75.79 0.0
03 02:15 SW 17 16.09 Overcast OVC100 10.2 -1.6 44% 75.82 0.0
03 01:55 SW 17 16.09 Overcast OVC110 10 -1.6 45% 8 75.84 0.0
03 01:35 SW 20 16.09 Overcast OVC110 10.2 -1.9 43% 75.84 0.0
03 01:15 SW 20 16.09 Partly Cloudy SCT120 9.9 -2 44% 7 75.84 0.0
03 00:55 SW 17 16.09 Fair CLR 9.5 -2 14 9.3 45% 7 75.87 0.0
03 00:35 SW 17 16.09 Fair CLR 9.5 -2 45% 7 75.87 0.0
03 00:15 SW 19 16.09 Fair CLR 9.6 -2.1 44% 7 75.87 0.0
02 23:55 SW 19 16.09 Fair CLR 9.3 -1.8 46% 7 75.9 0.0
02 23:40 SW 17 16.09 Partly Cloudy SCT110 9.6 -1.9 45% 7 75.9 0.0
02 23:15 SW 17 16.09 Mostly Cloudy BKN110 10 -2 43% 8 75.92 0.0
02 22:55 SW 15 16.09 Partly Cloudy SCT120 10.1 -1.9 43% 75.92 0.0
02 22:35 SW 15 16.09 Fair CLR 9.7 -1.6 46% 8 75.95 0.0
02 22:15 SW 15 16.09 Fair CLR 9.8 -1.7 45% 8 75.97 0.0
02 21:55 SW 13 16.09 Fair CLR 10.1 -1.6 44% 75.97 0.0
02 21:35 SW 13 16.09 Fair CLR 10.5 -1.9 42% 75.97 0.0
02 21:15 SW 13 16.09 Fair CLR 10.9 -2 41% 75.97 0.0
02 20:55 SW 11 16.09 Partly Cloudy SCT100 11.1 -2.3 39% 75.97 0.0
02 20:35 SW 9 16.09 Partly Cloudy SCT100 11.2 -2.4 39% 76 0.0
02 20:20 SW 7 16.09 Fair CLR 11.1 -1.8 41% 76 0.0
02 19:55 SW 11 16.09 Partly Cloudy SCT110 12.4 -2.5 36% 76 0.0
02 19:35 SW 11 16.09 Fair CLR 13 -2.5 34% 76 0.0
02 19:15 W 13 16.09 Fair CLR 13.6 -3.2 31% 76.02 0.0
02 18:55 W 19 16.09 Fair CLR 14 -3.5 15.5 12.1 30% 76.02 0.0
02 18:35 W 19 G 28 16.09 Fair CLR 14.4 -4.4 27% 76.02 0.0
02 18:15 W 15 G 30 16.09 Fair CLR 15 -4.3 26% 76.05 0.0
02 17:55 W 15 16.09 Partly Cloudy SCT080 14.9 -3.9 27% 76.05 0.0
02 17:35 W 24 16.09 Fair CLR 15.1 -4.5 26% 76.07 0.0
02 17:15 W 17 16.09 Fair CLR 15 -4.6 26% 76.07 0.0
02 16:55 W 20 G 33 16.09 Fair CLR 15.1 -5 25% 76.1 0.0
02 16:35 W 20 G 37 16.09 Partly Cloudy SCT080 15.3 -4.3 26% 76.1 0.0
02 16:15 SW 26 G 33 16.09 Partly Cloudy SCT080 15.1 -5 25% 76.12 0.0
02 15:55 W 24 G 30 16.09 Partly Cloudy SCT080 14.9 -4.1 27% 76.15 0.0
02 15:35 W 24 G 31 16.09 Partly Cloudy SCT080 14.9 -4.9 25% 76.15 0.0
02 15:15 W 17 G 44 16.09 Partly Cloudy SCT070 15 -4.3 26% 76.2 0.0
02 14:55 W 22 G 39 16.09 Mostly Cloudy BKN070 14.9 -4.6 26% 76.2 0.0
02 14:35 SW 22 G 43 16.09 Mostly Cloudy BKN070 BKN085 14.3 -4.7 27% 76.23 0.0
02 14:15 NW 15 G 33 16.09 Mostly Cloudy BKN070 14.3 -4.6 27% 76.25 0.0
02 13:55 W 17 16.09 Partly Cloudy SCT070 13.1 -5.2 28% 76.25 0.0
02 13:35 NW 22 G 28 16.09 Partly Cloudy SCT070 12.8 -4.6 30% 76.28 0.0
02 13:15 W 13 16.09 Mostly Cloudy BKN070 13.2 -4.6 29% 76.3 0.0
02 12:55 W 20 G 28 16.09 Mostly Cloudy BKN070 12.2 -3.9 13.5 3 33% 76.33 0.0
02 12:35 W 19 G 35 16.09 Mostly Cloudy BKN070 12.5 -4.7 30% 76.33 0.0
02 12:15 W 17 G 26 16.09 Mostly Cloudy BKN070 12.5 -4.6 30% 76.33 0.0
02 11:55 NW 19 16.09 Mostly Cloudy BKN070 12.1 -4.9 30% 76.35 0.0
02 11:35 NW 19 G 31 16.09 Partly Cloudy SCT060 11.8 -4.2 33% 76.38 0.0
02 11:15 W 13 G 28 16.09 Partly Cloudy SCT060 11.5 -3.6 35% 76.38 0.0
02 10:55 SW 22 16.09 Fair CLR 10.9 -3.3 37% 76.4 0.0
02 10:35 W 13 16.09 Fair CLR 10.6 -3.5 37% 76.4 0.0
02 10:15 W 20 G 30 16.09 Fair CLR 10.3 -3.3 39% 76.4 0.0
02 09:55 W 19 16.09 Fair CLR 9.7 -3.5 40% 7 76.43 0.0
02 09:35 W 15 G 26 16.09 Fair CLR 9.2 -3.5 41% 7 76.43 0.0
02 09:15 W 20 16.09 Fair CLR 8.4 -3.8 42% 6 76.45 0.0
02 08:55 W 17 16.09 Fair CLR 7.6 -3 47% 5 76.45 0.0
02 08:35 SW 15 16.09 Fair CLR 6.5 -2.7 52% 4 76.45 0.0
02 08:15 SW 17 16.09 Fair CLR 5.3 -2.7 57% 2 76.45 0.0
02 07:55 SW 11 16.09 Partly Cloudy SCT080 4 -2.1 65% 2 76.45 0.0
02 07:35 W 11 16.09 Overcast OVC090 3.5 -2.1 67% 1 76.45 0.0
02 07:15 SW 9 16.09 Overcast OVC090 3.4 -2.2 67% 1 76.45 0.0
02 06:55 SW 9 16.09 Overcast OVC090 2.8 -2.3 4 1.7 69% 1 76.45 0.0
02 06:35 SW 6 16.09 Overcast OVC090 2.3 -2.4 71% 76.43 0.0
02 06:15 SW 7 16.09 Overcast OVC090 2 -2.6 72% 0 76.43 0.0
02 05:55 SW 6 16.09 Overcast OVC090 2 -3 70% 76.43 0.0
02 05:35 Calm 16.09 Overcast OVC090 2.5 -3.6 64% 76.43 0.0
02 05:15 Calm 16.09 Mostly Cloudy BKN090 2.5 -3.3 66% 76.43 0.0
02 04:55 SW 6 16.09 Overcast OVC090 2.5 -3 67% 76.43 0.0
02 04:35 Calm 16.09 Overcast OVC090 2.5 -3.4 65% 76.43 0.0
02 04:15 SW 7 16.09 Overcast OVC090 2.7 -3.5 64% 1 76.4 0.0
02 03:55 Calm 16.09 Overcast OVC090 3 -4.1 60% 76.4 0.0
02 03:35 Calm 16.09 Overcast OVC090 3.1 -4.6 57% 76.4 0.0
02 03:15 Calm 16.09 Overcast OVC090 3 -4.5 58% 76.4 0.0
02 02:55 Calm 16.09 Overcast OVC090 3 -4.6 58% 76.4 0.0
02 02:35 SW 6 16.09 Mostly Cloudy BKN090 3 -5.2 55% 76.43 0.0
02 02:15 SW 6 16.09 Partly Cloudy SCT090 3.1 -5.3 54% 76.43 0.0
02 01:55 Calm 16.09 Fair CLR 2.9 -5.3 55% 76.43 0.0
02 01:35 Calm 16.09 Fair CLR 3.2 -5.2 54% 76.43 0.0
02 01:15 SW 6 16.09 Fair CLR 3.8 -5.6 51% 76.43 0.0
02 00:55 Calm 16.09 Fair CLR 2.1 -3.5 9.2 2.1 67% 76.43 0.0
02 00:35 S 6 16.09 Fair CLR 2.4 -4.8 59% 76.43 0.0
02 00:15 Calm 16.09 Fair CLR 3.7 -4.9 54% 76.43 0.0
01 23:55 Calm 16.09 Fair CLR 3.7 -5 53% 76.43 0.0
01 23:35 Calm 16.09 Fair CLR 5.2 -5.5 46% 76.43 0.0
01 23:15 Calm 16.09 Fair CLR 5.1 -5.5 47% 76.43 0.0
01 22:55 Calm 16.09 Fair CLR 4.8 -5.7 47% 76.43 0.0
01 22:35 Calm 16.09 Fair CLR 5.7 -6.1 43% 76.4 0.0
01 22:15 Calm 16.09 Fair CLR 5.5 -5.3 46% 76.4 0.0
01 21:55 Calm 16.09 Fair CLR 5.3 -4.8 48% 76.4 0.0
01 21:35 E 6 16.09 Mostly Cloudy BKN080 5.3 -4.1 51% 76.4 0.0
01 21:15 NE 7 16.09 Overcast OVC080 6.2 -3.8 49% 5 76.38 0.0
01 20:55 NE 6 16.09 Overcast OVC080 6.3 -3.8 49% 76.38 0.0
01 20:35 N 6 16.09 Mostly Cloudy BKN080 6.6 -4.5 45% 76.35 0.0
Date Time (cdt) Wind (kph) Vis. (km) Weather Sky Cond. Air Dwpt Max. Min. Relative Humidity Wind Chill (°C) Heat Index (°C) altimeter (cm) sea level (mb) 1 hr 3 hr 6 hr
6 hour
Temperature (ºC) Pressure Precipitation (cm)